Hauptseite
METAR-TAF:

METAR-TAF

Flughäfen :

Chicago, Illinois, Vereinigte Staaten

Chicago O’Hare International Airport

Breite: 41-58-47N, Länge: 087-54-16W, Höhe: 203 m

Beobachtung

Neuester Wetterbericht von vor 51 Minuten, um 07:51 UTC
Windstille
Temperatur 22°C
Luftfeuchtigkeit 78%
Luftdruck 1018 hPa
Sichtweite: 16.1 km
Himmel klar

METAR: KORD 240751Z 00000KT 10SM CLR 22/18 A3007 RMK AO2 SLP176 T02220183

Zeit: 03:42 (08:42 UTC)

Prognose

Neuester Wetterbericht von vor 3 Stunden und 21 Minuten, um 05:21 UTC
Gültige Prognose vom 24 um 06 UTC bis 25 um 12 UTC
Wind 4 kt aus Süd/Südost
Sichtweite: 10 km
Himmel klar
Ab 24 um 2000 UTC
Wind 11 kt aus Ost
Sichtweite: 10 km
Leicht bewölkt in der Höhe von 5000 ft
Ab 25 um 0100 UTC
Wind 5 kt aus Süd/Südost
Sichtweite: 10 km
Himmel klar

TAF: KORD 240521Z 2406/2512 15004KT P6SM SKC FM242000 10011KT P6SM FEW050 FM250100 15005KT P6SM SKC

Wetterbeobachtungen und Prognosen von mehr als 4000 Flughäfen (METAR und TAF Bericht).

Die verfügbaren Stationen werden durch gelbe und rote Markierungen auf der Karte dargestellt.

Führen Sie die Maus auf sie, um den Namen der Station zu sehen.

Darauf klicken, um die Beobachtung von Wetterbeobachtungen und Prognosen zu sehen.

Um die Karte zu ändern : klicken Sie auf den grünen Tasten mit einem schwarzen Kreuz Zum Vergrößern, auf den grünen Button mit einem Gedankenstrich zu verkleinern, oder auf die grünen Pfeile für benachbarte Karten.


METAR-TAF: